• Join FlightAware (Why Join?)
  • Login
  • US Flag 
Gobble Gobble! 
07:33PM EST


 

Airport Tracker/Info


-or-


 

Live Flight TrackerFlight Track Log ✈ SKW5649 ✈ 06.05.2013 ✈ KDEN - KBUR

Flight Track Log - Related Links

Times and Time Zones

All times are in EDT time to prevent confusion due to time zone crossing. See the SKW5649 flight status page for this flight to view local times or setup timezone preferences in your user account.

Time Position Orientation Groundspeed Altitude Reporting Facility
EDT Latitude Longitude Course Direction KTS MPH feet Rate Location/Type
09:43PM 39.8333 -104.7833 255° West 202 232 7,000  Level Denver TRACON
09:44PM 39.8167 -104.8667 255° West 273 314 8,600 1,980 Climbing Denver TRACON
09:45PM 39.7206 -105.0718 247° West  Level FlightAware Approximate
09:45PM 39.7922 -104.9325 244° Southwest 277 319 10,300  Level Denver Center
09:46PM 39.6758 -105.2059 247° West  Level FlightAware Approximate
09:46PM 39.7625 -105.0389 250° West 311 358 12,300  Level Denver Center
09:47PM 39.6368 -105.3429 248° West  Level FlightAware Approximate
09:47PM 39.7236 -105.1475 245° Southwest 328 377 14,500  Level Denver Center
09:48PM 39.5951 -105.4786 248° West  Level FlightAware Approximate
09:48PM 39.6800 -105.2678 245° Southwest 341 392 16,600  Level Denver Center
09:49PM 39.5516 -105.6085 255° West  Level FlightAware Approximate
09:49PM 39.6389 -105.3842 245° Southwest 354 407 18,800  Level Denver Center
09:50PM 39.5925 -105.5092 244° Southwest 360 414 21,000 1,740 Climbing Denver Center
09:51PM 39.5489 -105.6272 244° Southwest 367 422 22,500 1,440 Climbing Denver Center
09:53PM 39.4783 -105.8881 251° West 371 427 25,600 1,380 Climbing Denver Center
09:54PM 39.4408 -106.0214 250° West 386 444 26,900 1,200 Climbing Denver Center
09:55PM 39.3997 -106.1678 250° West 392 451 28,200 960 Climbing Denver Center
09:57PM 39.3362 -106.3746 247° West  Level FlightAware Approximate
09:57PM 39.3183 -106.4517 247° West 409 471 30,000  Level Denver Center
09:58PM 39.2800 -106.5886 250° West 421 484 30,600 540 Climbing Denver Center
09:59PM 39.2381 -106.7278 249° West 432 497 31,200 780 Climbing Denver Center
10:00PM 39.1664 -106.8767 238° Southwest 434 499 32,300 1,200 Climbing Denver Center
10:02PM 39.0836 -107.0470 236° Southwest  Level FlightAware Approximate
10:02PM 39.0392 -107.1433 236° Southwest 417 480 35,000  Level Denver Center
10:03PM 38.9800 -107.2639 238° Southwest 415 478 35,700 780 Climbing Denver Center
10:04PM 38.9131 -107.4017 238° Southwest 409 471 36,700 780 Climbing Denver Center
10:05PM 38.8567 -107.5178 238° Southwest 402 463 37,400 360 Climbing Denver Center
10:07PM 38.7758 -107.6604 237° Southwest  Level FlightAware Approximate
10:07PM 38.7322 -107.7703 237° Southwest 403 464 38,000  Level Denver Center
10:08PM 38.6739 -107.8894 238° Southwest 409 471 38,000  Level Denver Center
10:10PM 38.5931 -108.0167 239° Southwest  Level FlightAware Approximate
10:10PM 38.5419 -108.1553 239° Southwest 428 493 38,000  Level Denver Center
10:11PM 38.4689 -108.3028 238° Southwest 437 503 38,000  Level Denver Center
10:13PM 38.4064 -108.4264 237° Southwest 435 501 38,000  Level Denver Center
10:14PM 38.3333 -108.5697 237° Southwest 433 498 38,000  Level Denver Center
10:15PM 38.2714 -108.6961 238° Southwest 436 502 38,000  Level Denver Center
10:16PM 38.2081 -108.8186 237° Southwest 434 499 38,000  Level Denver Center
10:17PM 38.1344 -108.9611 237° Southwest 432 497 38,000  Level Denver Center
10:18PM 38.0722 -109.0867 238° Southwest 433 498 38,000  Level Denver Center
10:19PM 38.0047 -109.2139 236° Southwest 428 493 38,000  Level Denver Center
10:20PM 37.9319 -109.3575 237° Southwest 433 498 38,000  Level Denver Center
10:21PM 37.8686 -109.4761 236° Southwest 427 491 38,000  Level Denver Center
10:22PM 37.7958 -109.6175 237° Southwest 427 491 38,000  Level Denver Center
10:23PM 37.7339 -109.7378 237° Southwest 427 491 38,000  Level Denver Center
10:24PM 37.6708 -109.8564 236° Southwest 426 490 38,000  Level Denver Center
10:25PM 37.5992 -109.9953 237° Southwest 424 488 38,000  Level Denver Center
10:26PM 37.5361 -110.1142 236° Southwest 426 490 38,000  Level Denver Center
10:27PM 37.4703 -110.2358 236° Southwest 427 491 38,000  Level Denver Center
10:28PM 37.4042 -110.3592 236° Southwest 426 490 38,000  Level Denver Center
10:29PM 37.3253 -110.5075 236° Southwest 424 488 38,000  Level Denver Center
10:30PM 37.2589 -110.6314 236° Southwest 428 493 38,000  Level Denver Center
10:32PM 37.1222 -110.8814 236° Southwest 430 495 38,000  Level Los Angeles Center
10:33PM 37.0575 -111.0036 236° Southwest 427 491 38,100  Climbing Denver Center
10:34PM 36.9919 -111.1261 236° Southwest 425 489 38,000 -60 Descending Denver Center
10:35PM 36.9256 -111.2472 236° Southwest 423 487 38,000  Level Denver Center
10:37PM 36.7775 -111.5128 235° Southwest 420 483 38,000  Level Los Angeles Center
10:38PM 36.7139 -111.6317 236° Southwest 422 486 38,000  Level Denver Center
10:39PM 36.6469 -111.7503 235° Southwest 419 482 38,000  Level Denver Center
10:40PM 36.5803 -111.8708 235° Southwest 421 484 38,000  Level Denver Center
10:41PM 36.5139 -111.9892 235° Southwest 417 480 38,100  Climbing Denver Center
10:42PM 36.4472 -112.1078 235° Southwest 417 480 38,000 -60 Descending Denver Center
10:43PM 36.3803 -112.2272 235° Southwest 419 482 38,000  Level Denver Center
10:44PM 36.2997 -112.3686 235° Southwest 421 484 38,000  Level Los Angeles Center
10:45PM 36.2322 -112.4869 235° Southwest 419 482 38,000  Level Los Angeles Center
10:46PM 36.1661 -112.6056 235° Southwest 419 482 38,000  Level Los Angeles Center
10:47PM 36.0975 -112.7236 234° Southwest 420 483 38,000  Level Los Angeles Center
10:49PM 36.0417 -112.8461 241° Southwest 411 473 38,000  Level Los Angeles Center
10:50PM 36.0011 -112.9781 249° West 409 471 38,000  Level Los Angeles Center
10:51PM 35.9522 -113.1239 248° West 408 470 38,000  Level Los Angeles Center
10:52PM 35.9106 -113.2550 249° West 411 473 38,000  Level Los Angeles Center
10:53PM 35.8678 -113.3844 248° West 412 474 38,000  Level Los Angeles Center
10:55PM 35.7808 -113.6458 248° West 410 472 38,000  Level Los Angeles Center
10:56PM 35.7372 -113.7744 247° West 408 470 38,000  Level Los Angeles Center
10:57PM 35.6972 -113.8944 248° West 404 465 38,000  Level Los Angeles Center
10:58PM 35.6467 -114.0464 248° West 404 465 38,100 -420 Climbing Los Angeles Center
10:59PM 35.6039 -114.1714 247° West 401 461 37,200 -1,020 Descending Los Angeles Center
11:00PM 35.5572 -114.3058 247° West 394 453 36,100 -900 Descending Los Angeles Center
11:01PM 35.5167 -114.4231 247° West 376 433 35,200 -660 Descending Los Angeles Center
11:03PM 35.4510 -114.6053 246° West  Level FlightAware Approximate
11:03PM 35.4319 -114.6706 246° West 354 407 34,000  Level Los Angeles Center
11:04PM 35.3925 -114.7858 247° West 363 418 34,000  Level Los Angeles Center
11:05PM 35.3519 -114.9047 247° West 374 430 34,000 -180 Level Los Angeles Center
11:06PM 35.3106 -115.0225 247° West 376 433 33,700 -780 Descending Los Angeles Center
11:07PM 35.2619 -115.1675 248° West 380 437 32,500 -1,080 Descending Los Angeles Center
11:08PM 35.2197 -115.2850 246° West 377 434 31,500 -960 Descending Los Angeles Center
11:09PM 35.1831 -115.3900 247° West 378 435 30,600 -960 Descending Los Angeles Center
11:10PM 35.1406 -115.5092 246° West 382 440 29,600 -1,020 Descending Los Angeles Center
11:11PM 35.0978 -115.6306 247° West 387 445 28,600 -1,080 Descending Los Angeles Center
11:12PM 35.0467 -115.7742 247° West 386 444 27,400 -1,080 Descending Los Angeles Center
11:13PM 35.0033 -115.8936 246° West 387 445 26,400 -1,020 Descending Los Angeles Center
11:14PM 34.9589 -116.0144 246° West 390 449 25,400 -1,020 Descending Los Angeles Center
11:15PM 34.9150 -116.1353 246° West 390 449 24,400 -1,020 Descending Los Angeles Center
11:16PM 34.8725 -116.2572 247° West 390 449 23,400 -1,080 Descending Los Angeles Center
11:17PM 34.8275 -116.3789 246° West 393 452 22,300 -1,080 Descending Los Angeles Center
11:18PM 34.7922 -116.5000 251° West 385 443 21,300 -1,020 Descending Los Angeles Center
11:19PM 34.7817 -116.6256 264° West 374 430 20,300 -660 Descending Los Angeles Center
11:21PM 34.7669 -116.7750 263° West 371 427 20,000 -180 Descending Los Angeles Center
11:22PM 34.7536 -116.9058 263° West 386 444 20,000  Level Los Angeles Center
11:23PM 34.7392 -117.0342 262° West 385 443 20,000 -480 Level Los Angeles Center
11:24PM 34.7261 -117.1603 263° West 380 437 19,100 -960 Descending Los Angeles Center
11:25PM 34.7131 -117.2858 263° West 375 432 18,100 -1,020 Descending Los Angeles Center
11:26PM 34.7000 -117.4117 263° West 375 432 17,100 -1,020 Descending Los Angeles Center
11:27PM 34.6872 -117.5406 263° West 380 437 16,000 -1,020 Descending Los Angeles Center
11:28PM 34.6742 -117.6681 263° West 379 436 15,100 -1,020 Descending Los Angeles Center
11:29PM 34.6611 -117.7908 263° West 366 421 14,000 -1,380 Descending Los Angeles Center
11:30PM 34.6458 -117.9344 263° West 353 406 12,300 -1,380 Descending Los Angeles Center
11:31PM 34.6331 -118.0464 262° West 339 390 11,200 -1,140 Descending Los Angeles Center
11:32PM 34.6119 -118.1558 257° West 320 368 10,000 -1,020 Descending Los Angeles Center
11:33PM 34.5939 -118.2336 254° West 277 319 9,100 -1,020 Descending Los Angeles Center
11:34PM 34.5708 -118.3392 255° West 271 312 8,000 -540 Descending Los Angeles Center
11:35PM 34.5517 -118.4228 254° West 261 300 8,000 -420 Level Los Angeles Center
11:36PM 34.5125 -118.4897 235° Southwest 246 283 7,200 -840 Descending Los Angeles Center
11:37PM 34.4614 -118.5539 226° Southwest 260 299 6,300 -600 Descending Los Angeles Center
11:38PM 34.3958 -118.5789 197° South 250 288 6,000 -360 Descending Los Angeles Center
11:39PM 34.3333 -118.6000 196° South 235 270 5,700 -540 Descending Southern California TRACON
11:40PM 34.2833 -118.6000 180° South 219 252 5,100 -720 Descending Southern California TRACON
11:41PM 34.2167 -118.5833 168° South 213 245 4,300 -900 Descending Southern California TRACON
11:42PM 34.2000 -118.5167 107° East 206 237 3,300 -1,140 Descending Southern California TRACON